sensor_id;sensor_type;location;lat;lon;timestamp;pressure;altitude;pressure_sealevel;temperature
67353;BMP180;54238;52.278;21.056;2023-08-06T00:01:24;99364.80;;;20.40
67353;BMP180;54238;52.278;21.056;2023-08-06T00:03:55;99364.00;;;20.40
67353;BMP180;54238;52.278;21.056;2023-08-06T00:06:29;99359.00;;;20.40
67353;BMP180;54238;52.278;21.056;2023-08-06T00:08:56;99353.40;;;20.40
67353;BMP180;54238;52.278;21.056;2023-08-06T00:11:24;99346.60;;;20.40
67353;BMP180;54238;52.278;21.056;2023-08-06T00:13:51;99341.00;;;20.40
67353;BMP180;54238;52.278;21.056;2023-08-06T00:16:20;99334.80;;;20.40
67353;BMP180;54238;52.278;21.056;2023-08-06T00:18:51;99332.80;;;20.40
67353;BMP180;54238;52.278;21.056;2023-08-06T00:21:21;99328.00;;;20.40
67353;BMP180;54238;52.278;21.056;2023-08-06T00:23:47;99328.40;;;20.40
67353;BMP180;54238;52.278;21.056;2023-08-06T00:26:15;99324.60;;;20.40
67353;BMP180;54238;52.278;21.056;2023-08-06T00:28:44;99333.60;;;20.30
67353;BMP180;54238;52.278;21.056;2023-08-06T00:31:16;99343.00;;;20.30
67353;BMP180;54238;52.278;21.056;2023-08-06T00:33:43;99358.00;;;20.30
67353;BMP180;54238;52.278;21.056;2023-08-06T00:36:12;99359.80;;;20.20
67353;BMP180;54238;52.278;21.056;2023-08-06T00:38:42;99359.40;;;20.10
67353;BMP180;54238;52.278;21.056;2023-08-06T00:41:10;99347.40;;;20.10
67353;BMP180;54238;52.278;21.056;2023-08-06T00:43:44;99351.80;;;20.08
67353;BMP180;54238;52.278;21.056;2023-08-06T00:46:16;99347.80;;;20.00
67353;BMP180;54238;52.278;21.056;2023-08-06T00:48:50;99342.60;;;20.00
67353;BMP180;54238;52.278;21.056;2023-08-06T00:51:17;99327.40;;;19.90
67353;BMP180;54238;52.278;21.056;2023-08-06T00:53:48;99329.40;;;19.80
67353;BMP180;54238;52.278;21.056;2023-08-06T00:56:16;99324.00;;;19.80
67353;BMP180;54238;52.278;21.056;2023-08-06T00:58:45;99322.40;;;19.80
67353;BMP180;54238;52.278;21.056;2023-08-06T01:01:15;99315.00;;;19.80
67353;BMP180;54238;52.278;21.056;2023-08-06T01:03:45;99299.20;;;19.78
67353;BMP180;54238;52.278;21.056;2023-08-06T01:06:17;99286.80;;;19.70
67353;BMP180;54238;52.278;21.056;2023-08-06T01:11:44;99274.40;;;19.80
67353;BMP180;54238;52.278;21.056;2023-08-06T01:17:01;99262.60;;;19.90
67353;BMP180;54238;52.278;21.056;2023-08-06T01:19:34;99252.00;;;19.94
67353;BMP180;54238;52.278;21.056;2023-08-06T01:22:01;99248.80;;;20.00
67353;BMP180;54238;52.278;21.056;2023-08-06T01:24:31;99241.80;;;20.00
67353;BMP180;54238;52.278;21.056;2023-08-06T01:27:04;99234.20;;;20.00
67353;BMP180;54238;52.278;21.056;2023-08-06T01:29:44;99216.40;;;20.06
67353;BMP180;54238;52.278;21.056;2023-08-06T01:32:17;99198.20;;;20.10
67353;BMP180;54238;52.278;21.056;2023-08-06T01:34:51;99182.60;;;20.10
67353;BMP180;54238;52.278;21.056;2023-08-06T01:37:22;99170.80;;;20.10
67353;BMP180;54238;52.278;21.056;2023-08-06T01:39:50;99164.20;;;20.00
67353;BMP180;54238;52.278;21.056;2023-08-06T01:42:21;99154.20;;;20.00
67353;BMP180;54238;52.278;21.056;2023-08-06T01:44:51;99142.40;;;20.06
67353;BMP180;54238;52.278;21.056;2023-08-06T01:47:23;99131.20;;;20.02
67353;BMP180;54238;52.278;21.056;2023-08-06T01:49:52;99131.60;;;20.00
67353;BMP180;54238;52.278;21.056;2023-08-06T01:52:24;99132.60;;;20.04
67353;BMP180;54238;52.278;21.056;2023-08-06T01:54:51;99125.80;;;20.00
67353;BMP180;54238;52.278;21.056;2023-08-06T01:57:21;99116.40;;;20.06
67353;BMP180;54238;52.278;21.056;2023-08-06T01:59:53;99116.40;;;20.10
67353;BMP180;54238;52.278;21.056;2023-08-06T02:02:20;99115.80;;;20.10
67353;BMP180;54238;52.278;21.056;2023-08-06T02:04:54;99109.20;;;20.08
67353;BMP180;54238;52.278;21.056;2023-08-06T02:07:25;99113.40;;;20.10
67353;BMP180;54238;52.278;21.056;2023-08-06T02:09:52;99110.40;;;20.10
67353;BMP180;54238;52.278;21.056;2023-08-06T02:12:21;99110.40;;;20.10
67353;BMP180;54238;52.278;21.056;2023-08-06T02:14:54;99104.20;;;20.10
67353;BMP180;54238;52.278;21.056;2023-08-06T02:17:23;99106.40;;;20.10
67353;BMP180;54238;52.278;21.056;2023-08-06T02:19:50;99106.60;;;20.20
67353;BMP180;54238;52.278;21.056;2023-08-06T02:22:17;99099.60;;;20.20
67353;BMP180;54238;52.278;21.056;2023-08-06T02:24:44;99090.80;;;20.20
67353;BMP180;54238;52.278;21.056;2023-08-06T02:27:13;99077.20;;;20.20
67353;BMP180;54238;52.278;21.056;2023-08-06T02:29:40;99070.00;;;20.20
67353;BMP180;54238;52.278;21.056;2023-08-06T02:32:08;99065.60;;;20.20
67353;BMP180;54238;52.278;21.056;2023-08-06T02:34:35;99055.40;;;20.20
67353;BMP180;54238;52.278;21.056;2023-08-06T02:37:02;99053.60;;;20.16
67353;BMP180;54238;52.278;21.056;2023-08-06T02:39:31;99058.60;;;20.18
67353;BMP180;54238;52.278;21.056;2023-08-06T02:42:02;99064.40;;;20.20
67353;BMP180;54238;52.278;21.056;2023-08-06T02:44:32;99061.60;;;20.20
67353;BMP180;54238;52.278;21.056;2023-08-06T02:47:00;99056.20;;;20.20
67353;BMP180;54238;52.278;21.056;2023-08-06T02:49:30;99057.60;;;20.20
67353;BMP180;54238;52.278;21.056;2023-08-06T02:52:00;99056.00;;;20.20
67353;BMP180;54238;52.278;21.056;2023-08-06T02:54:29;99056.00;;;20.20
67353;BMP180;54238;52.278;21.056;2023-08-06T02:56:56;99056.00;;;20.20
67353;BMP180;54238;52.278;21.056;2023-08-06T02:59:23;99054.20;;;20.20
67353;BMP180;54238;52.278;21.056;2023-08-06T03:01:50;99044.80;;;20.30
67353;BMP180;54238;52.278;21.056;2023-08-06T03:04:19;99042.20;;;20.30
67353;BMP180;54238;52.278;21.056;2023-08-06T03:06:50;99040.80;;;20.30
67353;BMP180;54238;52.278;21.056;2023-08-06T03:09:18;99036.40;;;20.30
67353;BMP180;54238;52.278;21.056;2023-08-06T03:11:45;99023.00;;;20.30
67353;BMP180;54238;52.278;21.056;2023-08-06T03:14:14;99011.20;;;20.30
67353;BMP180;54238;52.278;21.056;2023-08-06T03:16:43;99007.40;;;20.30
67353;BMP180;54238;52.278;21.056;2023-08-06T03:19:12;99001.60;;;20.30
67353;BMP180;54238;52.278;21.056;2023-08-06T03:21:47;98997.80;;;20.40
67353;BMP180;54238;52.278;21.056;2023-08-06T03:24:17;98994.20;;;20.38
67353;BMP180;54238;52.278;21.056;2023-08-06T03:26:47;98986.80;;;20.40
67353;BMP180;54238;52.278;21.056;2023-08-06T03:29:14;98980.80;;;20.40
67353;BMP180;54238;52.278;21.056;2023-08-06T03:31:43;98973.60;;;20.40
67353;BMP180;54238;52.278;21.056;2023-08-06T03:34:10;98966.00;;;20.40
67353;BMP180;54238;52.278;21.056;2023-08-06T03:36:43;98962.80;;;20.40
67353;BMP180;54238;52.278;21.056;2023-08-06T03:39:12;98963.40;;;20.46
67353;BMP180;54238;52.278;21.056;2023-08-06T03:41:43;98959.00;;;20.50
67353;BMP180;54238;52.278;21.056;2023-08-06T03:44:10;98952.80;;;20.50
67353;BMP180;54238;52.278;21.056;2023-08-06T03:46:37;98946.40;;;20.50
67353;BMP180;54238;52.278;21.056;2023-08-06T03:49:09;98939.80;;;20.50
67353;BMP180;54238;52.278;21.056;2023-08-06T03:51:39;98936.80;;;20.50
67353;BMP180;54238;52.278;21.056;2023-08-06T03:54:09;98932.20;;;20.58
67353;BMP180;54238;52.278;21.056;2023-08-06T03:56:39;98927.80;;;20.60
67353;BMP180;54238;52.278;21.056;2023-08-06T03:59:08;98922.00;;;20.60
67353;BMP180;54238;52.278;21.056;2023-08-06T04:01:40;98921.20;;;20.70
67353;BMP180;54238;52.278;21.056;2023-08-06T04:04:08;98912.80;;;20.70
67353;BMP180;54238;52.278;21.056;2023-08-06T04:06:37;98905.00;;;20.70
67353;BMP180;54238;52.278;21.056;2023-08-06T04:09:07;98902.00;;;20.70
67353;BMP180;54238;52.278;21.056;2023-08-06T04:11:34;98896.00;;;20.70
67353;BMP180;54238;52.278;21.056;2023-08-06T04:14:04;98889.80;;;20.80
67353;BMP180;54238;52.278;21.056;2023-08-06T04:16:34;98882.00;;;20.80
67353;BMP180;54238;52.278;21.056;2023-08-06T04:19:04;98880.40;;;20.80
67353;BMP180;54238;52.278;21.056;2023-08-06T04:21:34;98877.80;;;20.80
67353;BMP180;54238;52.278;21.056;2023-08-06T04:24:00;98876.00;;;20.80
67353;BMP180;54238;52.278;21.056;2023-08-06T04:26:33;98873.40;;;20.80
67353;BMP180;54238;52.278;21.056;2023-08-06T04:29:01;98869.80;;;20.90
67353;BMP180;54238;52.278;21.056;2023-08-06T04:31:29;98858.80;;;20.90
67353;BMP180;54238;52.278;21.056;2023-08-06T04:33:58;98860.80;;;21.00
67353;BMP180;54238;52.278;21.056;2023-08-06T04:36:31;98861.60;;;21.00
67353;BMP180;54238;52.278;21.056;2023-08-06T04:39:00;98856.60;;;21.00
67353;BMP180;54238;52.278;21.056;2023-08-06T04:41:27;98853.20;;;21.10
67353;BMP180;54238;52.278;21.056;2023-08-06T04:43:57;98847.00;;;21.14
67353;BMP180;54238;52.278;21.056;2023-08-06T04:46:24;98841.60;;;21.20
67353;BMP180;54238;52.278;21.056;2023-08-06T04:48:53;98844.00;;;21.20
67353;BMP180;54238;52.278;21.056;2023-08-06T04:51:23;98835.40;;;21.30
67353;BMP180;54238;52.278;21.056;2023-08-06T04:53:57;98828.20;;;21.30
67353;BMP180;54238;52.278;21.056;2023-08-06T04:56:25;98829.00;;;21.40
67353;BMP180;54238;52.278;21.056;2023-08-06T04:58:54;98830.40;;;21.40
67353;BMP180;54238;52.278;21.056;2023-08-06T05:01:24;98828.40;;;21.40
67353;BMP180;54238;52.278;21.056;2023-08-06T05:03:53;98831.00;;;21.50
67353;BMP180;54238;52.278;21.056;2023-08-06T05:06:20;98826.60;;;21.50
67353;BMP180;54238;52.278;21.056;2023-08-06T05:08:54;98814.60;;;21.50
67353;BMP180;54238;52.278;21.056;2023-08-06T05:11:21;98815.20;;;21.60
67353;BMP180;54238;52.278;21.056;2023-08-06T05:13:49;98814.20;;;21.60
67353;BMP180;54238;52.278;21.056;2023-08-06T05:16:25;98808.00;;;21.70
67353;BMP180;54238;52.278;21.056;2023-08-06T05:18:55;98796.40;;;21.70
67353;BMP180;54238;52.278;21.056;2023-08-06T05:21:27;98789.40;;;21.74
67353;BMP180;54238;52.278;21.056;2023-08-06T05:24:00;98789.60;;;21.80
67353;BMP180;54238;52.278;21.056;2023-08-06T05:26:27;98790.80;;;21.80
67353;BMP180;54238;52.278;21.056;2023-08-06T05:28:54;98785.00;;;21.80
67353;BMP180;54238;52.278;21.056;2023-08-06T05:31:23;98786.40;;;21.90
67353;BMP180;54238;52.278;21.056;2023-08-06T05:33:57;98780.40;;;21.90
67353;BMP180;54238;52.278;21.056;2023-08-06T05:36:26;98778.80;;;21.90
67353;BMP180;54238;52.278;21.056;2023-08-06T05:38:56;98782.00;;;21.98
67353;BMP180;54238;52.278;21.056;2023-08-06T05:41:28;98771.20;;;22.00
67353;BMP180;54238;52.278;21.056;2023-08-06T05:43:55;98770.20;;;22.00
67353;BMP180;54238;52.278;21.056;2023-08-06T05:46:22;98762.60;;;22.10
67353;BMP180;54238;52.278;21.056;2023-08-06T05:48:54;98754.00;;;22.10
67353;BMP180;54238;52.278;21.056;2023-08-06T05:51:28;98753.00;;;22.20
67353;BMP180;54238;52.278;21.056;2023-08-06T05:53:58;98744.40;;;22.20
67353;BMP180;54238;52.278;21.056;2023-08-06T05:56:30;98740.80;;;22.30
67353;BMP180;54238;52.278;21.056;2023-08-06T05:59:02;98735.40;;;22.30
67353;BMP180;54238;52.278;21.056;2023-08-06T06:01:31;98731.40;;;22.36
67353;BMP180;54238;52.278;21.056;2023-08-06T06:04:01;98729.20;;;22.40
67353;BMP180;54238;52.278;21.056;2023-08-06T06:06:35;98732.80;;;22.48
67353;BMP180;54238;52.278;21.056;2023-08-06T06:09:07;98732.00;;;22.50
67353;BMP180;54238;52.278;21.056;2023-08-06T06:11:35;98731.40;;;22.60
67353;BMP180;54238;52.278;21.056;2023-08-06T06:14:04;98731.80;;;22.70
67353;BMP180;54238;52.278;21.056;2023-08-06T06:16:34;98730.20;;;22.70
67353;BMP180;54238;52.278;21.056;2023-08-06T06:19:03;98729.00;;;22.80
67353;BMP180;54238;52.278;21.056;2023-08-06T06:21:30;98729.60;;;22.86
67353;BMP180;54238;52.278;21.056;2023-08-06T06:23:58;98728.20;;;22.90
67353;BMP180;54238;52.278;21.056;2023-08-06T06:26:31;98726.60;;;23.00
67353;BMP180;54238;52.278;21.056;2023-08-06T06:29:01;98723.80;;;23.10
67353;BMP180;54238;52.278;21.056;2023-08-06T06:31:30;98719.40;;;23.20
67353;BMP180;54238;52.278;21.056;2023-08-06T06:34:04;98705.80;;;23.30
67353;BMP180;54238;52.278;21.056;2023-08-06T06:36:36;98705.60;;;23.40
67353;BMP180;54238;52.278;21.056;2023-08-06T06:39:03;98699.20;;;23.48
67353;BMP180;54238;52.278;21.056;2023-08-06T06:41:32;98701.00;;;23.60
67353;BMP180;54238;52.278;21.056;2023-08-06T06:44:02;98698.00;;;23.70
67353;BMP180;54238;52.278;21.056;2023-08-06T06:46:29;98694.40;;;23.80
67353;BMP180;54238;52.278;21.056;2023-08-06T06:48:56;98689.20;;;23.80
67353;BMP180;54238;52.278;21.056;2023-08-06T06:51:23;98687.80;;;23.90
67353;BMP180;54238;52.278;21.056;2023-08-06T06:53:53;98691.80;;;24.00
67353;BMP180;54238;52.278;21.056;2023-08-06T06:56:20;98686.20;;;24.10
67353;BMP180;54238;52.278;21.056;2023-08-06T06:58:49;98689.20;;;24.10
67353;BMP180;54238;52.278;21.056;2023-08-06T07:01:16;98692.40;;;24.20
67353;BMP180;54238;52.278;21.056;2023-08-06T07:03:48;98690.80;;;24.30
67353;BMP180;54238;52.278;21.056;2023-08-06T07:06:15;98691.40;;;24.40
67353;BMP180;54238;52.278;21.056;2023-08-06T07:08:45;98693.20;;;24.50
67353;BMP180;54238;52.278;21.056;2023-08-06T07:11:12;98690.00;;;24.60
67353;BMP180;54238;52.278;21.056;2023-08-06T07:13:39;98689.20;;;24.70
67353;BMP180;54238;52.278;21.056;2023-08-06T07:16:09;98690.60;;;24.80
67353;BMP180;54238;52.278;21.056;2023-08-06T07:18:40;98681.80;;;24.92
67353;BMP180;54238;52.278;21.056;2023-08-06T07:21:10;98685.20;;;25.06
67353;BMP180;54238;52.278;21.056;2023-08-06T07:23:39;98687.80;;;25.20
67353;BMP180;54238;52.278;21.056;2023-08-06T07:26:13;98685.40;;;25.38
67353;BMP180;54238;52.278;21.056;2023-08-06T07:28:45;98687.00;;;25.66
67353;BMP180;54238;52.278;21.056;2023-08-06T07:31:14;98687.00;;;26.00
67353;BMP180;54238;52.278;21.056;2023-08-06T07:33:41;98680.80;;;26.30
67353;BMP180;54238;52.278;21.056;2023-08-06T07:36:15;98682.60;;;26.62
67353;BMP180;54238;52.278;21.056;2023-08-06T07:38:44;98681.20;;;26.90
67353;BMP180;54238;52.278;21.056;2023-08-06T07:41:17;98677.20;;;27.00
67353;BMP180;54238;52.278;21.056;2023-08-06T07:43:47;98679.40;;;27.10
67353;BMP180;54238;52.278;21.056;2023-08-06T07:46:14;98678.80;;;27.10
67353;BMP180;54238;52.278;21.056;2023-08-06T07:48:43;98678.80;;;27.20
67353;BMP180;54238;52.278;21.056;2023-08-06T07:51:15;98679.60;;;27.20
67353;BMP180;54238;52.278;21.056;2023-08-06T07:53:42;98680.00;;;27.40
67353;BMP180;54238;52.278;21.056;2023-08-06T07:56:09;98682.00;;;27.50
67353;BMP180;54238;52.278;21.056;2023-08-06T07:58:36;98682.40;;;27.60
67353;BMP180;54238;52.278;21.056;2023-08-06T08:01:06;98678.00;;;27.62
67353;BMP180;54238;52.278;21.056;2023-08-06T08:03:41;98677.40;;;27.70
67353;BMP180;54238;52.278;21.056;2023-08-06T08:06:08;98670.60;;;27.80
67353;BMP180;54238;52.278;21.056;2023-08-06T08:08:37;98666.60;;;27.98
67353;BMP180;54238;52.278;21.056;2023-08-06T08:11:07;98661.60;;;28.00
67353;BMP180;54238;52.278;21.056;2023-08-06T08:13:37;98664.20;;;28.00
67353;BMP180;54238;52.278;21.056;2023-08-06T08:16:07;98663.00;;;28.00
67353;BMP180;54238;52.278;21.056;2023-08-06T08:18:38;98658.80;;;27.90
67353;BMP180;54238;52.278;21.056;2023-08-06T08:21:11;98661.80;;;27.90
67353;BMP180;54238;52.278;21.056;2023-08-06T08:23:38;98667.20;;;27.80
67353;BMP180;54238;52.278;21.056;2023-08-06T08:26:13;98659.60;;;27.80
67353;BMP180;54238;52.278;21.056;2023-08-06T08:28:47;98660.60;;;27.82
67353;BMP180;54238;52.278;21.056;2023-08-06T08:31:13;98655.40;;;27.92
67353;BMP180;54238;52.278;21.056;2023-08-06T08:33:41;98652.20;;;28.10
67353;BMP180;54238;52.278;21.056;2023-08-06T08:36:08;98655.20;;;28.20
67353;BMP180;54238;52.278;21.056;2023-08-06T08:38:37;98647.80;;;28.40
67353;BMP180;54238;52.278;21.056;2023-08-06T08:41:11;98647.80;;;28.50
67353;BMP180;54238;52.278;21.056;2023-08-06T08:43:41;98650.60;;;28.70
67353;BMP180;54238;52.278;21.056;2023-08-06T08:46:14;98641.80;;;28.80
67353;BMP180;54238;52.278;21.056;2023-08-06T08:48:44;98640.80;;;28.90
67353;BMP180;54238;52.278;21.056;2023-08-06T08:51:12;98634.00;;;29.00
67353;BMP180;54238;52.278;21.056;2023-08-06T08:53:44;98643.00;;;29.00
67353;BMP180;54238;52.278;21.056;2023-08-06T08:56:15;98633.60;;;29.10
67353;BMP180;54238;52.278;21.056;2023-08-06T08:58:43;98635.20;;;29.30
67353;BMP180;54238;52.278;21.056;2023-08-06T09:01:12;98631.60;;;29.48
67353;BMP180;54238;52.278;21.056;2023-08-06T09:03:46;98634.00;;;29.60
67353;BMP180;54238;52.278;21.056;2023-08-06T09:06:15;98621.80;;;29.70
67353;BMP180;54238;52.278;21.056;2023-08-06T09:11:47;98624.40;;;29.70
67353;BMP180;54238;52.278;21.056;2023-08-06T09:14:19;98621.60;;;29.80
67353;BMP180;54238;52.278;21.056;2023-08-06T09:16:48;98618.00;;;29.86
67353;BMP180;54238;52.278;21.056;2023-08-06T09:19:15;98617.80;;;29.92
67353;BMP180;54238;52.278;21.056;2023-08-06T09:21:45;98611.40;;;30.10
67353;BMP180;54238;52.278;21.056;2023-08-06T09:24:15;98618.80;;;30.30
67353;BMP180;54238;52.278;21.056;2023-08-06T09:26:44;98605.60;;;30.44
67353;BMP180;54238;52.278;21.056;2023-08-06T09:29:12;98606.00;;;30.70
67353;BMP180;54238;52.278;21.056;2023-08-06T09:31:47;98606.60;;;30.92
67353;BMP180;54238;52.278;21.056;2023-08-06T09:36:51;98606.00;;;31.18
67353;BMP180;54238;52.278;21.056;2023-08-06T09:39:29;98595.80;;;31.20
67353;BMP180;54238;52.278;21.056;2023-08-06T09:42:01;98596.80;;;31.30
67353;BMP180;54238;52.278;21.056;2023-08-06T09:44:32;98597.80;;;31.50
67353;BMP180;54238;52.278;21.056;2023-08-06T09:47:04;98591.80;;;31.58
67353;BMP180;54238;52.278;21.056;2023-08-06T09:52:13;98593.60;;;32.04
67353;BMP180;54238;52.278;21.056;2023-08-06T09:54:43;98591.60;;;32.30
67353;BMP180;54238;52.278;21.056;2023-08-06T09:57:12;98591.60;;;32.50
67353;BMP180;54238;52.278;21.056;2023-08-06T09:59:42;98595.80;;;32.70
67353;BMP180;54238;52.278;21.056;2023-08-06T10:02:13;98589.20;;;32.70
67353;BMP180;54238;52.278;21.056;2023-08-06T10:04:44;98582.40;;;32.76
67353;BMP180;54238;52.278;21.056;2023-08-06T10:07:18;98577.60;;;32.90
67353;BMP180;54238;52.278;21.056;2023-08-06T10:09:47;98577.80;;;33.00
67353;BMP180;54238;52.278;21.056;2023-08-06T10:12:21;98567.60;;;33.00
67353;BMP180;54238;52.278;21.056;2023-08-06T10:14:58;98574.20;;;33.10
67353;BMP180;54238;52.278;21.056;2023-08-06T10:17:27;98567.20;;;33.22
67353;BMP180;54238;52.278;21.056;2023-08-06T10:19:59;98560.60;;;33.30
67353;BMP180;54238;52.278;21.056;2023-08-06T10:22:26;98561.00;;;33.50
67353;BMP180;54238;52.278;21.056;2023-08-06T10:25:02;98558.20;;;33.78
67353;BMP180;54238;52.278;21.056;2023-08-06T10:33:04;98555.80;;;33.82
67353;BMP180;54238;52.278;21.056;2023-08-06T10:35:38;98551.60;;;33.50
67353;BMP180;54238;52.278;21.056;2023-08-06T10:38:16;98545.60;;;33.40
67353;BMP180;54238;52.278;21.056;2023-08-06T10:43:33;98543.60;;;33.40
67353;BMP180;54238;52.278;21.056;2023-08-06T10:46:04;98543.00;;;33.22
67353;BMP180;54238;52.278;21.056;2023-08-06T10:48:39;98536.40;;;33.10
67353;BMP180;54238;52.278;21.056;2023-08-06T10:51:11;98532.80;;;33.20
67353;BMP180;54238;52.278;21.056;2023-08-06T10:53:44;98534.20;;;33.10
67353;BMP180;54238;52.278;21.056;2023-08-06T10:56:15;98525.20;;;33.10
67353;BMP180;54238;52.278;21.056;2023-08-06T10:58:44;98521.60;;;33.40
67353;BMP180;54238;52.278;21.056;2023-08-06T11:01:12;98529.20;;;33.40
67353;BMP180;54238;52.278;21.056;2023-08-06T11:03:43;98529.60;;;33.30
67353;BMP180;54238;52.278;21.056;2023-08-06T11:06:17;98517.40;;;33.22
67353;BMP180;54238;52.278;21.056;2023-08-06T11:08:53;98505.20;;;33.52
67353;BMP180;54238;52.278;21.056;2023-08-06T11:11:24;98509.00;;;33.50
67353;BMP180;54238;52.278;21.056;2023-08-06T11:13:52;98498.80;;;33.52
67353;BMP180;54238;52.278;21.056;2023-08-06T11:16:22;98493.80;;;33.88
67353;BMP180;54238;52.278;21.056;2023-08-06T11:18:54;98492.00;;;34.38
67353;BMP180;54238;52.278;21.056;2023-08-06T11:21:23;98487.80;;;34.62
67353;BMP180;54238;52.278;21.056;2023-08-06T11:23:55;98489.40;;;34.90
67353;BMP180;54238;52.278;21.056;2023-08-06T11:26:24;98485.60;;;34.86
67353;BMP180;54238;52.278;21.056;2023-08-06T11:28:52;98482.40;;;34.60
67353;BMP180;54238;52.278;21.056;2023-08-06T11:31:23;98476.40;;;34.40
67353;BMP180;54238;52.278;21.056;2023-08-06T11:33:56;98482.00;;;34.20
67353;BMP180;54238;52.278;21.056;2023-08-06T11:36:39;98475.20;;;34.00
67353;BMP180;54238;52.278;21.056;2023-08-06T11:39:07;98472.40;;;34.10
67353;BMP180;54238;52.278;21.056;2023-08-06T11:41:36;98464.20;;;34.34
67353;BMP180;54238;52.278;21.056;2023-08-06T11:44:11;98455.40;;;34.58
67353;BMP180;54238;52.278;21.056;2023-08-06T11:46:57;98460.00;;;34.96
67353;BMP180;54238;52.278;21.056;2023-08-06T11:49:46;98459.80;;;35.30
67353;BMP180;54238;52.278;21.056;2023-08-06T11:52:25;98451.40;;;35.84
67353;BMP180;54238;52.278;21.056;2023-08-06T11:55:02;98445.00;;;36.44
67353;BMP180;54238;52.278;21.056;2023-08-06T11:57:35;98445.80;;;36.96
67353;BMP180;54238;52.278;21.056;2023-08-06T12:00:13;98454.40;;;37.00
67353;BMP180;54238;52.278;21.056;2023-08-06T12:02:43;98445.00;;;36.52
67353;BMP180;54238;52.278;21.056;2023-08-06T12:07:47;98428.80;;;35.98
67353;BMP180;54238;52.278;21.056;2023-08-06T12:10:26;98427.40;;;36.34
67353;BMP180;54238;52.278;21.056;2023-08-06T12:12:56;98433.00;;;36.88
67353;BMP180;54238;52.278;21.056;2023-08-06T12:15:26;98433.40;;;37.10
67353;BMP180;54238;52.278;21.056;2023-08-06T12:17:55;98439.40;;;37.00
67353;BMP180;54238;52.278;21.056;2023-08-06T12:20:26;98449.00;;;36.80
67353;BMP180;54238;52.278;21.056;2023-08-06T12:22:57;98451.40;;;36.26
67353;BMP180;54238;52.278;21.056;2023-08-06T12:25:24;98452.80;;;35.76
67353;BMP180;54238;52.278;21.056;2023-08-06T12:27:54;98449.00;;;35.16
67353;BMP180;54238;52.278;21.056;2023-08-06T12:30:21;98444.40;;;34.60
67353;BMP180;54238;52.278;21.056;2023-08-06T12:32:48;98450.40;;;34.14
67353;BMP180;54238;52.278;21.056;2023-08-06T12:35:21;98437.20;;;33.66
67353;BMP180;54238;52.278;21.056;2023-08-06T12:37:52;98450.60;;;33.20
67353;BMP180;54238;52.278;21.056;2023-08-06T12:40:25;98441.40;;;32.80
67353;BMP180;54238;52.278;21.056;2023-08-06T12:42:57;98448.00;;;32.42
67353;BMP180;54238;52.278;21.056;2023-08-06T12:45:28;98449.80;;;32.10
67353;BMP180;54238;52.278;21.056;2023-08-06T12:47:58;98443.60;;;31.86
67353;BMP180;54238;52.278;21.056;2023-08-06T12:50:27;98433.00;;;31.60
67353;BMP180;54238;52.278;21.056;2023-08-06T12:52:55;98432.00;;;31.40
67353;BMP180;54238;52.278;21.056;2023-08-06T12:55:22;98425.60;;;31.20
67353;BMP180;54238;52.278;21.056;2023-08-06T12:57:52;98429.00;;;31.00
67353;BMP180;54238;52.278;21.056;2023-08-06T13:00:19;98427.00;;;30.90
67353;BMP180;54238;52.278;21.056;2023-08-06T13:02:49;98437.60;;;30.70
67353;BMP180;54238;52.278;21.056;2023-08-06T13:05:16;98438.20;;;30.60
67353;BMP180;54238;52.278;21.056;2023-08-06T13:07:43;98442.00;;;30.50
67353;BMP180;54238;52.278;21.056;2023-08-06T13:10:12;98433.00;;;30.40
67353;BMP180;54238;52.278;21.056;2023-08-06T13:12:40;98433.00;;;30.30
67353;BMP180;54238;52.278;21.056;2023-08-06T13:15:10;98441.00;;;30.20
67353;BMP180;54238;52.278;21.056;2023-08-06T13:17:40;98436.80;;;30.10
67353;BMP180;54238;52.278;21.056;2023-08-06T13:20:11;98450.40;;;30.10
67353;BMP180;54238;52.278;21.056;2023-08-06T13:22:39;98461.40;;;29.90
67353;BMP180;54238;52.278;21.056;2023-08-06T13:25:06;98462.60;;;29.64
67353;BMP180;54238;52.278;21.056;2023-08-06T13:27:40;98469.80;;;29.40
67353;BMP180;54238;52.278;21.056;2023-08-06T13:30:13;98455.80;;;29.68
67353;BMP180;54238;52.278;21.056;2023-08-06T13:32:41;98435.40;;;30.42
67353;BMP180;54238;52.278;21.056;2023-08-06T13:35:12;98439.20;;;31.14
67353;BMP180;54238;52.278;21.056;2023-08-06T13:37:42;98438.00;;;31.88
67353;BMP180;54238;52.278;21.056;2023-08-06T13:40:12;98444.00;;;32.62
67353;BMP180;54238;52.278;21.056;2023-08-06T13:42:41;98441.20;;;33.32
67353;BMP180;54238;52.278;21.056;2023-08-06T13:45:09;98433.80;;;33.82
67353;BMP180;54238;52.278;21.056;2023-08-06T13:47:39;98433.20;;;34.10
67353;BMP180;54238;52.278;21.056;2023-08-06T13:50:08;98434.40;;;34.52
67353;BMP180;54238;52.278;21.056;2023-08-06T13:52:38;98436.40;;;34.90
67353;BMP180;54238;52.278;21.056;2023-08-06T13:55:10;98436.00;;;35.20
67353;BMP180;54238;52.278;21.056;2023-08-06T13:57:38;98436.00;;;35.10
67353;BMP180;54238;52.278;21.056;2023-08-06T14:00:05;98440.20;;;34.70
67353;BMP180;54238;52.278;21.056;2023-08-06T14:02:40;98435.60;;;34.28
67353;BMP180;54238;52.278;21.056;2023-08-06T14:05:07;98428.00;;;33.90
67353;BMP180;54238;52.278;21.056;2023-08-06T14:07:37;98443.40;;;33.70
67353;BMP180;54238;52.278;21.056;2023-08-06T14:10:05;98445.80;;;33.40
67353;BMP180;54238;52.278;21.056;2023-08-06T14:12:38;98453.40;;;33.58
67353;BMP180;54238;52.278;21.056;2023-08-06T14:15:08;98458.80;;;33.98
67353;BMP180;54238;52.278;21.056;2023-08-06T14:17:36;98458.00;;;34.40
67353;BMP180;54238;52.278;21.056;2023-08-06T14:20:07;98470.80;;;34.64
67353;BMP180;54238;52.278;21.056;2023-08-06T14:22:38;98468.80;;;34.70
67353;BMP180;54238;52.278;21.056;2023-08-06T14:25:08;98479.40;;;34.50
67353;BMP180;54238;52.278;21.056;2023-08-06T14:27:38;98486.20;;;34.50
67353;BMP180;54238;52.278;21.056;2023-08-06T14:30:06;98494.80;;;34.22
67353;BMP180;54238;52.278;21.056;2023-08-06T14:32:34;98499.80;;;33.80
67353;BMP180;54238;52.278;21.056;2023-08-06T14:35:04;98502.80;;;33.40
67353;BMP180;54238;52.278;21.056;2023-08-06T14:37:32;98502.40;;;33.38